KOFK/OFK METAR and TAF weather

Enter ICAO airport designator
Station Type Date Time Source
KOFK METAR 2021/03/05 06:56 UTC NOAA

KOFK 050656Z AUTO 10006KT 4SM BR CLR 02/00 A3022 RMK AO2 SLP237 T00220000


Station Type Date Time Source
KOFK Decoded METAR 2021/03/05 06:56 UTC NOAA

KARL STEFAN MEMORIAL AIRPORT, NE, United States (KOFK) 41-59N 097-26W 470M
Mar 05, 2021 - 01:56 AM EST / 2021.03.05 0656 UTC
Wind: from the E (100 degrees) at 7 MPH (6 KT):0
Visibility: 4 mile(s):0
Sky conditions: clear
Weather: mist
Temperature: 36.0 F (2.2 C)
Dew Point: 32.0 F (0.0 C)
Relative Humidity: 85%
Pressure (altimeter): 30.22 in. Hg (1023 hPa)
ob: KOFK 050656Z AUTO 10006KT 4SM BR CLR 02/00 A3022 RMK AO2 SLP237 T00220000
cycle: 7

Station Type Date Time Source
KOFK TAF 2021/03/05 06:30 UTC NOAA

TAF KOFK 050528Z 0506/0606 10006KT P6SM SCT200
FM050800 VRB04KT 5SM BR BKN150
FM051100 VRB03KT 3SM BR BKN008
FM051600 VRB04KT P6SM BKN060

Example: see airport list